Detalii statie TRANSAVIA REDIU [0000197C]

Toti senzorii

Date Temperatura solului [C]Precipitatii [mm]Voltaj baterie [mV]Leaf Wetness [Min]HC Air temperature [C]HC Relative humidity [%]Punctul de roua [C]
medieminmaxsumaultimatimpmedieminmaxmediemediemin
2020-01-21 22:00:00 0 6434 -2.8 -2.92 -2.72 0 0 0
2020-01-21 23:00:00 0 6424 -3.23 -3.4 -3.08 0 0 0
2020-01-22 00:00:00 0 6424 -3.15 -3.23 -3.06 0 0 0
2020-01-22 01:00:00 0 6424 -3.24 -3.62 -3.09 0 0 0
2020-01-22 02:00:00 0 6424 -5.09 -5.96 -4.01 0 0 0
2020-01-22 03:00:00 0 6424 -6.23 -6.44 -5.73 0 0 0
2020-01-22 04:00:00 0 6424 -4.91 -5.25 -4.64 0 0 0
2020-01-22 05:00:00 0 6416 -5.56 -5.8 -5.31 0 0 0
2020-01-22 06:00:00 0 6416 -5.09 -5.67 -4.41 0 0 0
2020-01-22 07:00:00 0 6416 -4.27 -4.32 -4.19 0 0 0
2020-01-22 08:00:00 0 6424 -4.28 -4.34 -4.22 0 0 0
2020-01-22 09:00:00 0 6434 -4.1 -4.28 -3.9 0 0 0
2020-01-22 10:00:00 0 6464 -3.7 -3.89 -3.54 0 0 0
2020-01-22 11:00:00 0 6532 -3.23 -3.55 -2.93 0 0 0
2020-01-22 12:00:00 0 6552 -2.83 -3.08 -2.66 0 0 0
2020-01-22 13:00:00 0 6590 -2.82 -2.99 -2.6 0 0 0
2020-01-22 14:00:00 0 6620 -3 -3.16 -2.88 0 0 0
2020-01-22 15:00:00 0 6590 -2.78 -3.02 -2.45 0 0 0
2020-01-22 16:00:00 0 6542 -2.62 -2.91 -2.35 0 0 0
2020-01-22 17:00:00 0 6484 -3.13 -3.27 -3.02 0 0 0
2020-01-22 18:00:00 0 6464 -3.46 -3.54 -3.34 0 0 0
2020-01-22 19:00:00 0 6454 -3.42 -3.51 -3.36 0 0 0
2020-01-22 20:00:00 0 6444 -3.46 -3.54 -3.4 0 0 0
2020-01-22 21:00:00 0 6434 -3.54 -3.64 -3.5 0 0 0
2020-01-22 22:00:00 0 6434 -3.77 -3.99 -3.6 0 0 0
2020-01-22 23:00:00 0 6424 -4.06 -4.14 -3.94 8.33 0
2020-01-23 00:00:00 0 6424 -3.5 -3.87 -2.84 0 0 0
2020-01-23 01:00:00 0 6416 -2.91 -3.37 -2.26 0 0 0
2020-01-23 02:00:00 0 6424 -2.83 -3.3 -2.31 0 0 0
2020-01-23 03:00:00 0 6424 -2.42 -2.87 -2.14 0 0 0
2020-01-23 04:00:00 0 6416 -2.95 -3.17 -2.66 0 0 0
2020-01-23 05:00:00 0 6416 -2.59 -3.13 -2.17 0 0 0
2020-01-23 06:00:00 0 6424 -2.51 -2.67 -2.33 0 0 0
2020-01-23 07:00:00 0 6424 -2.3 -2.62 -2.09 0 0 0
2020-01-23 08:00:00 0 6424 -2.16 -2.25 -2.05 0 0 0
2020-01-23 09:00:00 0 6434 -1.87 -2.15 -1.67 0 0 0
2020-01-23 10:00:00 0 6484 -1.3 -1.81 -0.91 0 0 0
2020-01-23 11:00:00 0 6542 -0.44 -0.7 -0.01 0 0 0
2020-01-23 12:00:00 0 6572 -0.38 -0.73 -0.06 0 0 0
2020-01-23 13:00:00 0 6600 0.2 -0.44 1.11 0 0 0
2020-01-23 14:00:00 0 6620 0.48 -0.07 1.78 0 0 0
2020-01-23 15:00:00 0 6660 0.9 0.33 1.43 0 0 0
2020-01-23 16:00:00 0 6766 0.5 -0.01 0.95 0 0 0
2020-01-23 17:00:00 0 6620 -0.63 -1.43 0.22 0 0 0
2020-01-23 18:00:00 0 6572 -2.29 -3.92 -1.5 0 0 0
2020-01-23 19:00:00 0 6552 -4.07 -4.42 -3.81 16.66 -0.6 0
2020-01-23 20:00:00 0 6532 -3.61 -4.5 -2.65 50 -1.4 0
2020-01-23 21:00:00 0 6522 -3.97 -4.73 -3.17 33.33 -1.1 0